createdAt,value
2022-07-27T00:01:51.335Z,74745.13
2022-07-27T00:04:20.606Z,74745.13
2022-07-27T00:06:49.383Z,74741.03
2022-07-27T00:09:18.392Z,74736.97
2022-07-27T00:11:47.680Z,74732.88
2022-07-27T00:14:16.267Z,74732.88
2022-07-27T00:16:45.829Z,74734.94
2022-07-27T00:19:15.190Z,74741.03
2022-07-27T00:21:46.393Z,74741.03
2022-07-27T00:24:16.927Z,74736.97
2022-07-27T00:26:47.851Z,74753.28
2022-07-27T00:29:16.706Z,74749.19
2022-07-27T00:31:46.702Z,74753.28
2022-07-27T00:34:17.558Z,74753.28
2022-07-27T00:36:47.523Z,74761.41
2022-07-27T00:39:17.282Z,74765.50
2022-07-27T00:41:47.818Z,74773.66
2022-07-27T00:44:26.798Z,74777.72
2022-07-27T00:46:57.860Z,74775.69
2022-07-27T00:49:27.377Z,74781.81
2022-07-27T00:51:56.481Z,74785.88
2022-07-27T00:54:25.514Z,74792.00
2022-07-27T00:56:55.453Z,74798.09
2022-07-27T00:59:23.893Z,74794.03
2022-07-27T01:01:53.802Z,74798.09
2022-07-27T01:04:25.000Z,74796.06
2022-07-27T01:06:53.478Z,74802.19
2022-07-27T01:09:39.595Z,74832.75
2022-07-27T01:12:13.517Z,74836.81
2022-07-27T01:14:42.659Z,74834.78
2022-07-27T01:17:10.959Z,74836.81
2022-07-27T01:19:42.372Z,74844.97
2022-07-27T01:22:12.467Z,74840.91
2022-07-27T01:24:40.824Z,74830.72
2022-07-27T01:27:12.050Z,74834.78
2022-07-27T01:29:41.666Z,74836.81
2022-07-27T01:32:09.632Z,74844.97
2022-07-27T01:34:39.370Z,74847.00
2022-07-27T01:37:09.563Z,74849.06
2022-07-27T01:39:39.895Z,74855.16
2022-07-27T01:42:10.195Z,74855.16
2022-07-27T01:44:41.006Z,74863.31
2022-07-27T01:47:14.050Z,74859.25
2022-07-27T01:49:43.037Z,74863.31
2022-07-27T01:52:11.722Z,74859.25
2022-07-27T01:54:41.482Z,74867.41
2022-07-27T01:57:11.829Z,74865.34
2022-07-27T01:59:41.478Z,74865.34
2022-07-27T02:02:14.283Z,74867.41
2022-07-27T02:04:43.352Z,74875.56
2022-07-27T02:07:13.244Z,74873.50
2022-07-27T02:09:46.049Z,74875.56
2022-07-27T02:12:31.522Z,74877.59
2022-07-27T02:15:05.528Z,74891.84
2022-07-27T02:17:33.994Z,74904.09
2022-07-27T02:20:07.257Z,74904.09
2022-07-27T02:22:36.282Z,74904.09
2022-07-27T02:25:07.066Z,74900.00
2022-07-27T02:27:36.709Z,74902.03
2022-07-27T02:30:07.828Z,74895.94
2022-07-27T02:32:36.397Z,74895.94
2022-07-27T02:35:18.819Z,74900.00
2022-07-27T02:37:49.299Z,74897.97
2022-07-27T02:40:21.661Z,74912.22
2022-07-27T02:42:49.591Z,74920.38
2022-07-27T02:45:18.018Z,74920.38
2022-07-27T02:47:46.778Z,74916.31
2022-07-27T02:50:16.501Z,74928.53
2022-07-27T02:52:44.711Z,74924.47
2022-07-27T02:55:15.533Z,74926.50
2022-07-27T02:57:47.796Z,74932.63
2022-07-27T03:00:17.483Z,74936.69
2022-07-27T03:02:50.147Z,74940.78
2022-07-27T03:05:18.634Z,74936.69
2022-07-27T03:07:46.556Z,74934.66
2022-07-27T03:10:15.068Z,74940.78
2022-07-27T03:12:44.989Z,74946.88
2022-07-27T03:15:14.853Z,74944.84
2022-07-27T03:17:43.090Z,74948.91
2022-07-27T03:20:16.820Z,74950.97
2022-07-27T03:22:47.484Z,74963.19
2022-07-27T03:25:16.431Z,74957.06
2022-07-27T03:27:46.343Z,74957.06
2022-07-27T03:30:17.972Z,74957.06
2022-07-27T03:32:48.282Z,74965.22
2022-07-27T03:35:19.768Z,74965.22
2022-07-27T03:37:48.096Z,74957.06
2022-07-27T03:40:18.061Z,74965.22
2022-07-27T03:42:47.773Z,74961.16
2022-07-27T03:45:18.460Z,74963.19
2022-07-27T03:47:46.811Z,74969.31
2022-07-27T03:50:16.459Z,74969.31
2022-07-27T03:52:46.464Z,74969.31
2022-07-27T03:55:14.444Z,74973.38
2022-07-27T03:57:44.275Z,74965.22
2022-07-27T04:00:15.855Z,74959.13
2022-07-27T04:02:46.689Z,74967.25
2022-07-27T04:05:15.349Z,74965.22
2022-07-27T04:07:45.742Z,74967.25
2022-07-27T04:10:14.181Z,74969.31
2022-07-27T04:12:42.341Z,74967.25
2022-07-27T04:15:11.404Z,74965.22
2022-07-27T04:17:54.703Z,74957.06
2022-07-27T04:20:27.746Z,74953.00
2022-07-27T04:22:56.071Z,74957.06
2022-07-27T04:25:26.048Z,74948.91
2022-07-27T04:27:55.189Z,74944.84
2022-07-27T04:30:24.100Z,74932.63
2022-07-27T04:32:52.357Z,74930.56
2022-07-27T04:35:25.934Z,74930.56
2022-07-27T04:37:58.805Z,74924.47
2022-07-27T04:40:33.807Z,74918.34
2022-07-27T04:43:05.416Z,74912.22
2022-07-27T04:45:34.513Z,74908.16
2022-07-27T04:48:07.162Z,74904.09
2022-07-27T04:50:40.577Z,74900.00
2022-07-27T04:53:12.215Z,74891.84
2022-07-27T04:55:43.309Z,74887.78
2022-07-27T04:58:14.447Z,74883.69
2022-07-27T05:00:44.546Z,74873.50
2022-07-27T05:03:13.495Z,74865.34
2022-07-27T05:05:49.959Z,74863.31
2022-07-27T05:08:21.114Z,74849.06
2022-07-27T05:10:50.627Z,74830.72
2022-07-27T05:13:21.428Z,74818.47
2022-07-27T05:15:55.221Z,74802.19
2022-07-27T05:18:25.621Z,74789.94
2022-07-27T05:20:54.226Z,74769.56
2022-07-27T05:23:26.581Z,74761.41
2022-07-27T05:25:54.868Z,74749.19
2022-07-27T05:28:22.883Z,74734.94
2022-07-27T05:30:52.221Z,74726.78
2022-07-27T05:33:22.794Z,74716.59
2022-07-27T05:35:50.877Z,74696.19
2022-07-27T05:38:19.158Z,74683.97
2022-07-27T05:40:50.786Z,74679.91
2022-07-27T05:43:20.498Z,74671.75
2022-07-27T05:45:49.404Z,74665.63
2022-07-27T05:48:18.599Z,74649.34
2022-07-27T05:50:49.277Z,74647.28
2022-07-27T05:53:19.022Z,74643.22
2022-07-27T05:55:58.548Z,74639.13
2022-07-27T05:58:30.217Z,74628.94
2022-07-27T06:01:00.000Z,74635.06
2022-07-27T06:03:29.937Z,74631.00
2022-07-27T06:06:26.749Z,74618.75
2022-07-27T06:08:55.627Z,74608.56
2022-07-27T06:11:23.514Z,74612.66
2022-07-27T06:13:53.854Z,74598.38
2022-07-27T06:16:23.693Z,74590.22
2022-07-27T06:18:53.089Z,74582.09
2022-07-27T06:21:24.220Z,74573.94
2022-07-27T06:24:12.404Z,74565.78
2022-07-27T06:26:41.877Z,74569.84
2022-07-27T06:29:11.598Z,74569.84
2022-07-27T06:31:39.679Z,74559.66
2022-07-27T06:34:12.668Z,74547.44
2022-07-27T06:36:45.146Z,74522.97
2022-07-27T06:39:14.025Z,74516.88
2022-07-27T06:41:43.403Z,74508.72
2022-07-27T06:44:13.371Z,74504.63
2022-07-27T06:46:44.363Z,74490.38
2022-07-27T06:49:15.056Z,74472.03
2022-07-27T06:51:43.971Z,74459.81
2022-07-27T06:54:14.890Z,74445.53
2022-07-27T06:56:44.830Z,74435.34
2022-07-27T06:59:15.134Z,74439.44
2022-07-27T07:01:48.476Z,74443.50
2022-07-27T07:04:23.204Z,74437.41
2022-07-27T07:06:53.381Z,74425.16
2022-07-27T07:09:23.452Z,74431.28
2022-07-27T07:11:53.468Z,74431.28
2022-07-27T07:14:26.064Z,74410.91
2022-07-27T07:16:54.386Z,74382.38
2022-07-27T07:19:25.489Z,74382.38
2022-07-27T07:21:54.171Z,74378.28
2022-07-27T07:24:23.779Z,74374.22
2022-07-27T07:26:52.756Z,74355.88
2022-07-27T07:29:21.270Z,74327.34
2022-07-27T07:31:50.793Z,74333.47
2022-07-27T07:34:20.834Z,74329.38
2022-07-27T07:36:50.425Z,74331.44
2022-07-27T07:39:18.371Z,74325.31
2022-07-27T07:41:48.328Z,74309.00
2022-07-27T07:44:17.099Z,74300.88
2022-07-27T07:46:47.367Z,74296.78
2022-07-27T07:49:17.456Z,74288.63
2022-07-27T07:51:46.972Z,74272.34
2022-07-27T07:54:15.828Z,74258.06
2022-07-27T07:56:44.340Z,74256.03
2022-07-27T07:59:15.176Z,74251.97
2022-07-27T08:01:44.620Z,74227.50
2022-07-27T08:04:13.483Z,74211.22
2022-07-27T08:06:43.962Z,74192.88
2022-07-27T08:09:13.306Z,74186.75
2022-07-27T08:11:43.171Z,74180.63
2022-07-27T08:14:11.872Z,74166.38
2022-07-27T08:16:40.878Z,74156.19
2022-07-27T08:19:11.158Z,74137.84
2022-07-27T08:21:39.295Z,74121.56
2022-07-27T08:24:09.271Z,74121.56
2022-07-27T08:26:38.533Z,74117.47
2022-07-27T08:29:13.581Z,74123.59
2022-07-27T08:31:51.148Z,74139.88
2022-07-27T08:34:23.374Z,74158.22
2022-07-27T08:36:53.346Z,74178.59
2022-07-27T08:40:05.737Z,74188.78
2022-07-27T08:42:14.013Z,74190.81
2022-07-27T08:44:42.644Z,74170.44
2022-07-27T08:47:12.401Z,74164.34
2022-07-27T08:49:43.608Z,74139.88
2022-07-27T08:52:13.547Z,74121.56
2022-07-27T08:54:43.881Z,74111.34
2022-07-27T08:57:14.271Z,74125.63
2022-07-27T08:59:43.418Z,74109.31
2022-07-27T09:02:15.349Z,74101.16
2022-07-27T09:04:44.207Z,74105.25
2022-07-27T09:07:28.615Z,74113.41
2022-07-27T09:10:01.337Z,74127.66
2022-07-27T09:12:30.658Z,74129.69
2022-07-27T09:15:07.729Z,74113.41
2022-07-27T09:17:52.299Z,74109.31
2022-07-27T09:20:22.137Z,74097.09
2022-07-27T09:22:54.854Z,74093.03
2022-07-27T09:25:52.123Z,74088.94
2022-07-27T09:28:14.488Z,74082.84
2022-07-27T09:30:44.697Z,74076.72
2022-07-27T09:33:16.565Z,74080.78
2022-07-27T09:35:46.267Z,74064.50
2022-07-27T09:38:22.311Z,74050.22
2022-07-27T09:41:00.841Z,74064.50
2022-07-27T09:46:30.428Z,74080.78
2022-07-27T09:48:58.863Z,74090.97
2022-07-27T09:51:58.984Z,74105.25
2022-07-27T09:54:16.957Z,74121.56
2022-07-27T09:56:46.548Z,74127.66
2022-07-27T09:59:20.105Z,74141.94
2022-07-27T10:01:54.320Z,74143.97
2022-07-27T10:04:26.379Z,74146.00
2022-07-27T10:07:02.705Z,74154.16
2022-07-27T10:09:33.354Z,74148.03
2022-07-27T10:12:04.673Z,74150.06
2022-07-27T10:14:35.246Z,74148.03
2022-07-27T10:17:05.121Z,74154.16
2022-07-27T10:19:41.942Z,74137.84
2022-07-27T10:22:11.630Z,74125.63
2022-07-27T10:24:41.272Z,74109.31
2022-07-27T10:27:21.470Z,74097.09
2022-07-27T10:29:52.580Z,74080.78
2022-07-27T10:32:25.752Z,74068.56
2022-07-27T10:34:54.140Z,74064.50
2022-07-27T10:37:28.645Z,74025.78
2022-07-27T10:40:12.573Z,74013.56
2022-07-27T10:42:42.245Z,73987.06
2022-07-27T10:45:13.414Z,73950.41
2022-07-27T10:47:45.628Z,73917.78
2022-07-27T10:50:29.832Z,73883.16
2022-07-27T10:53:00.098Z,73860.75
2022-07-27T10:55:52.691Z,73852.59
2022-07-27T10:58:51.572Z,73895.38
2022-07-27T11:01:22.516Z,73915.75
2022-07-27T11:03:59.170Z,73921.88
2022-07-27T11:06:37.543Z,73917.78
2022-07-27T11:12:07.407Z,73836.28
2022-07-27T11:14:46.726Z,73799.63
2022-07-27T11:20:06.421Z,73754.78
2022-07-27T11:23:40.684Z,73793.50
2022-07-27T11:25:26.368Z,73795.53
2022-07-27T11:27:58.880Z,73787.41
2022-07-27T11:30:29.923Z,73795.53
2022-07-27T11:32:59.025Z,73771.09
2022-07-27T11:35:27.091Z,73771.09
2022-07-27T11:38:03.139Z,73771.09
2022-07-27T11:43:37.558Z,73795.53
2022-07-27T11:46:20.494Z,73813.88
2022-07-27T11:49:06.019Z,73828.16
2022-07-27T11:51:35.791Z,73864.81
2022-07-27T11:54:07.022Z,73881.13
2022-07-27T11:56:37.931Z,73860.75
2022-07-27T11:59:12.222Z,73868.91
2022-07-27T12:01:46.647Z,73883.16
2022-07-27T12:04:18.806Z,73893.34
2022-07-27T12:06:50.579Z,73901.50
2022-07-27T12:09:21.310Z,73915.75
2022-07-27T12:12:00.588Z,73925.94
2022-07-27T12:14:34.432Z,73915.75
2022-07-27T12:17:16.868Z,73913.72
2022-07-27T12:19:52.013Z,73917.78
2022-07-27T12:22:25.789Z,73915.75
2022-07-27T12:24:55.753Z,73934.09
2022-07-27T12:27:27.275Z,73932.06
2022-07-27T12:30:10.996Z,73944.28
2022-07-27T12:32:43.894Z,73942.25
2022-07-27T12:35:22.234Z,73934.09
2022-07-27T12:37:57.686Z,73934.09
2022-07-27T12:40:26.405Z,73932.06
2022-07-27T12:43:01.051Z,73921.88
2022-07-27T12:45:33.437Z,73936.13
2022-07-27T12:48:11.076Z,73936.13
2022-07-27T12:50:43.095Z,73921.88
2022-07-27T12:53:14.642Z,73917.78
2022-07-27T12:55:44.147Z,73927.97
2022-07-27T12:58:14.305Z,73954.47
2022-07-27T13:00:44.431Z,73940.22
2022-07-27T13:03:14.347Z,73956.50
2022-07-27T13:05:43.783Z,73960.59
2022-07-27T13:08:12.509Z,73958.53
2022-07-27T13:10:48.454Z,73972.81
2022-07-27T13:13:17.098Z,73966.69
2022-07-27T13:15:45.473Z,73987.06
2022-07-27T13:18:21.246Z,73995.22
2022-07-27T13:20:52.417Z,73991.16
2022-07-27T13:23:22.041Z,73999.28
2022-07-27T13:25:51.076Z,73995.22
2022-07-27T13:28:19.931Z,73991.16
2022-07-27T13:30:49.774Z,74003.38
2022-07-27T13:33:21.087Z,74003.38
2022-07-27T13:35:59.164Z,74017.63
2022-07-27T13:38:30.559Z,74031.91
2022-07-27T13:41:00.578Z,74042.09
2022-07-27T13:43:30.276Z,74040.03
2022-07-27T13:46:00.214Z,74048.19
2022-07-27T13:48:32.297Z,74042.09
2022-07-27T13:51:01.186Z,74048.19
2022-07-27T13:53:29.767Z,74062.47
2022-07-27T13:55:58.067Z,74066.53
2022-07-27T13:58:26.807Z,74072.66
2022-07-27T14:00:56.577Z,74074.69
2022-07-27T14:03:24.592Z,74095.06
2022-07-27T14:05:55.790Z,74139.88
2022-07-27T14:08:25.404Z,74158.22
2022-07-27T14:10:56.339Z,74158.22
2022-07-27T14:14:01.465Z,74160.25
2022-07-27T14:17:08.090Z,74172.50
2022-07-27T14:20:13.742Z,74166.38
2022-07-27T14:23:20.186Z,74129.69
2022-07-27T14:26:25.393Z,74129.69
2022-07-27T14:29:30.529Z,74162.31
2022-07-27T14:32:36.553Z,74225.47
2022-07-27T14:35:41.681Z,74258.06
2022-07-27T14:38:48.172Z,74266.22
2022-07-27T14:41:53.336Z,74268.25
2022-07-27T14:44:58.737Z,74309.00
2022-07-27T14:48:04.083Z,74335.50
2022-07-27T14:51:08.976Z,74349.78
2022-07-27T14:54:15.349Z,74380.34
2022-07-27T14:57:20.506Z,74378.28
2022-07-27T15:00:25.966Z,74384.41
2022-07-27T15:03:31.605Z,74392.56
2022-07-27T15:06:39.172Z,74414.97
2022-07-27T15:09:46.020Z,74429.25
2022-07-27T15:12:14.455Z,74439.44
2022-07-27T15:14:43.410Z,74435.34
2022-07-27T15:17:11.435Z,74431.28
2022-07-27T15:19:39.664Z,74437.41
2022-07-27T15:22:07.575Z,74443.50
2022-07-27T15:24:38.364Z,74457.78
2022-07-27T15:27:07.976Z,74480.19
2022-07-27T15:29:36.594Z,74496.50
2022-07-27T15:32:05.152Z,74508.72
2022-07-27T15:34:33.089Z,74512.78
2022-07-27T15:37:00.986Z,74520.94
2022-07-27T15:39:29.004Z,74533.16
2022-07-27T15:41:57.148Z,74537.25
2022-07-27T15:44:26.831Z,74549.47
2022-07-27T15:46:55.428Z,74555.59
2022-07-27T15:49:23.900Z,74567.81
2022-07-27T15:51:52.552Z,74553.56
2022-07-27T15:54:20.961Z,74545.41
2022-07-27T15:56:49.218Z,74541.31
2022-07-27T15:59:17.318Z,74516.88
2022-07-27T16:01:48.248Z,74488.34
2022-07-27T16:04:16.813Z,74474.06
2022-07-27T16:06:44.916Z,74465.91
2022-07-27T16:09:13.870Z,74447.59
2022-07-27T16:11:42.182Z,74427.22
2022-07-27T16:14:10.245Z,74419.06
2022-07-27T16:16:38.445Z,74419.06
2022-07-27T16:19:12.570Z,74414.97
2022-07-27T16:21:53.610Z,74388.50
2022-07-27T16:24:24.440Z,74370.16
2022-07-27T16:26:52.573Z,74370.16
2022-07-27T16:29:20.775Z,74366.06
2022-07-27T16:31:49.021Z,74362.00
2022-07-27T16:34:18.492Z,74357.91
2022-07-27T16:36:47.142Z,74359.97
2022-07-27T16:39:15.479Z,74362.00
2022-07-27T16:41:44.018Z,74345.69
2022-07-27T16:44:12.105Z,74329.38
2022-07-27T16:46:42.485Z,74333.47
2022-07-27T16:49:10.803Z,74341.63
2022-07-27T16:51:40.718Z,74333.47
2022-07-27T16:54:09.342Z,74333.47
2022-07-27T16:56:37.854Z,74313.09
2022-07-27T16:59:06.178Z,74306.97
2022-07-27T17:01:34.302Z,74300.88
2022-07-27T17:04:02.430Z,74290.69
2022-07-27T17:06:31.788Z,74288.63
2022-07-27T17:09:01.172Z,74296.78
2022-07-27T17:11:29.307Z,74309.00
2022-07-27T17:13:59.061Z,74323.28
2022-07-27T17:16:28.202Z,74329.38
2022-07-27T17:18:56.436Z,74341.63
2022-07-27T17:21:24.480Z,74355.88
2022-07-27T17:23:52.860Z,74353.84
2022-07-27T17:26:22.700Z,74355.88
2022-07-27T17:28:53.575Z,74357.91
2022-07-27T17:31:22.178Z,74366.06
2022-07-27T17:33:51.055Z,74382.38
2022-07-27T17:36:19.472Z,74388.50
2022-07-27T17:38:48.144Z,74382.38
2022-07-27T17:41:23.813Z,74382.38
2022-07-27T17:43:54.528Z,74398.69
2022-07-27T17:46:24.619Z,74414.97
2022-07-27T17:48:53.297Z,74423.13
2022-07-27T17:51:23.272Z,74425.16
2022-07-27T17:53:51.350Z,74429.25
2022-07-27T17:56:19.335Z,74435.34
2022-07-27T17:58:48.144Z,74437.41
2022-07-27T18:01:17.504Z,74435.34
2022-07-27T18:03:45.426Z,74441.47
2022-07-27T18:06:13.345Z,74451.66
2022-07-27T18:08:41.199Z,74463.88
2022-07-27T18:11:12.097Z,74472.03
2022-07-27T18:13:40.508Z,74480.19
2022-07-27T18:16:11.606Z,74494.44
2022-07-27T18:18:42.789Z,74502.59
2022-07-27T18:21:11.563Z,74510.75
2022-07-27T18:23:40.134Z,74525.03
2022-07-27T18:26:09.898Z,74535.22
2022-07-27T18:28:40.018Z,74553.56
2022-07-27T18:31:09.685Z,74559.66
2022-07-27T18:33:38.136Z,74578.00
2022-07-27T18:36:08.228Z,74586.16
2022-07-27T18:38:36.153Z,74586.16
2022-07-27T18:41:04.129Z,74586.16
2022-07-27T18:43:32.103Z,74590.22
2022-07-27T18:46:00.330Z,74590.22
2022-07-27T18:48:28.821Z,74602.47
2022-07-27T18:50:57.569Z,74610.63
2022-07-27T18:53:27.091Z,74618.75
2022-07-27T18:55:56.729Z,74635.06
2022-07-27T18:58:25.789Z,74635.06
2022-07-27T19:00:54.380Z,74643.22
2022-07-27T19:03:22.890Z,74651.38
2022-07-27T19:05:53.136Z,74663.59
2022-07-27T19:08:21.425Z,74677.88
2022-07-27T19:10:51.772Z,74692.13
2022-07-27T19:13:19.639Z,74704.34
2022-07-27T19:15:47.562Z,74716.59
2022-07-27T19:18:15.546Z,74732.88
2022-07-27T19:20:43.506Z,74751.22
2022-07-27T19:23:12.302Z,74753.28
2022-07-27T19:25:40.314Z,74753.28
2022-07-27T19:28:09.645Z,74763.47
2022-07-27T19:30:38.764Z,74777.72
2022-07-27T19:33:07.029Z,74792.00
2022-07-27T19:35:35.144Z,74794.03
2022-07-27T19:38:03.046Z,74802.19
2022-07-27T19:40:43.951Z,74808.28
2022-07-27T19:43:15.775Z,74806.25
2022-07-27T19:45:44.208Z,74826.63
2022-07-27T19:48:12.394Z,74834.78
2022-07-27T19:50:40.925Z,74834.78
2022-07-27T19:53:08.901Z,74840.91
2022-07-27T19:55:36.831Z,74844.97
2022-07-27T19:58:05.064Z,74847.00
2022-07-27T20:00:34.660Z,74851.09
2022-07-27T20:03:03.209Z,74855.16
2022-07-27T20:05:32.436Z,74855.16
2022-07-27T20:08:00.330Z,74847.00
2022-07-27T20:10:28.226Z,74842.94
2022-07-27T20:12:56.221Z,74826.63
2022-07-27T20:15:24.468Z,74818.47
2022-07-27T20:17:53.909Z,74818.47
2022-07-27T20:20:21.855Z,74812.38
2022-07-27T20:22:49.877Z,74818.47
2022-07-27T20:25:18.581Z,74826.63
2022-07-27T20:27:47.555Z,74830.72
2022-07-27T20:30:17.515Z,74838.88
2022-07-27T20:32:45.818Z,74838.88
2022-07-27T20:35:15.331Z,74838.88
2022-07-27T20:37:43.272Z,74853.13
2022-07-27T20:40:12.413Z,74855.16
2022-07-27T20:42:41.376Z,74855.16
2022-07-27T20:45:12.726Z,74851.09
2022-07-27T20:47:41.217Z,74855.16
2022-07-27T20:50:10.648Z,74853.13
2022-07-27T20:52:40.720Z,74855.16
2022-07-27T20:55:09.745Z,74857.22
2022-07-27T20:57:37.838Z,74869.44
2022-07-27T21:00:07.638Z,74867.41
2022-07-27T21:02:35.694Z,74875.56
2022-07-27T21:05:03.671Z,74889.81
2022-07-27T21:07:31.611Z,74891.84
2022-07-27T21:10:00.983Z,74900.00
2022-07-27T21:12:29.035Z,74906.13
2022-07-27T21:14:56.959Z,74908.16
2022-07-27T21:17:24.981Z,74908.16
2022-07-27T21:19:53.979Z,74916.31
2022-07-27T21:22:21.885Z,74930.56
2022-07-27T21:24:50.179Z,74936.69
2022-07-27T21:27:21.217Z,74940.78
2022-07-27T21:29:49.775Z,74948.91
2022-07-27T21:32:17.870Z,74957.06
2022-07-27T21:34:45.717Z,74971.34
2022-07-27T21:37:13.805Z,74973.38
2022-07-27T21:39:41.780Z,74985.59
2022-07-27T21:42:09.672Z,74985.59
2022-07-27T21:44:39.382Z,74985.59
2022-07-27T21:47:13.040Z,74981.53
2022-07-27T21:49:41.596Z,74981.53
2022-07-27T21:52:09.677Z,74991.72
2022-07-27T21:54:37.988Z,74995.81
2022-07-27T21:57:06.387Z,74999.88
2022-07-27T21:59:34.410Z,74999.88
2022-07-27T22:02:03.689Z,75006.00
2022-07-27T22:04:31.607Z,75014.13
2022-07-27T22:06:59.738Z,75026.38
2022-07-27T22:09:27.639Z,75028.41
2022-07-27T22:11:56.448Z,75034.53
2022-07-27T22:14:24.841Z,75046.75
2022-07-27T22:16:53.763Z,75048.78
2022-07-27T22:19:23.807Z,75058.97
2022-07-27T22:21:51.765Z,75067.13
2022-07-27T22:24:19.675Z,75067.13
2022-07-27T22:26:49.128Z,75083.44
2022-07-27T22:29:17.085Z,75085.47
2022-07-27T22:31:45.083Z,75093.63
2022-07-27T22:34:13.381Z,75103.81
2022-07-27T22:36:42.932Z,75111.97
2022-07-27T22:39:10.815Z,75118.09
2022-07-27T22:41:38.662Z,75118.09
2022-07-27T22:44:06.608Z,75128.28
2022-07-27T22:46:34.543Z,75120.13
2022-07-27T22:49:02.824Z,75128.28
2022-07-27T22:51:48.757Z,75128.28
2022-07-27T22:54:19.749Z,75136.44
2022-07-27T22:56:47.982Z,75132.34
2022-07-27T22:59:15.915Z,75128.28
2022-07-27T23:01:47.173Z,75136.44
2022-07-27T23:04:17.164Z,75136.44
2022-07-27T23:06:45.620Z,75148.66
2022-07-27T23:09:13.568Z,75150.69
2022-07-27T23:11:43.204Z,75152.75
2022-07-27T23:14:11.503Z,75156.81
2022-07-27T23:16:39.620Z,75160.88
2022-07-27T23:19:07.675Z,75160.88
2022-07-27T23:21:35.776Z,75167.00
2022-07-27T23:24:05.676Z,75167.00
2022-07-27T23:26:33.701Z,75175.16
2022-07-27T23:29:03.199Z,75187.38
2022-07-27T23:31:31.268Z,75185.34
2022-07-27T23:33:59.340Z,75189.44
2022-07-27T23:36:27.293Z,75195.53
2022-07-27T23:38:55.401Z,75195.53
2022-07-27T23:41:23.329Z,75199.63
2022-07-27T23:43:51.242Z,75209.81
2022-07-27T23:46:20.544Z,75217.97
2022-07-27T23:48:48.655Z,75226.13
2022-07-27T23:51:17.988Z,75226.13
2022-07-27T23:53:45.913Z,75228.16
2022-07-27T23:56:13.903Z,75234.28
2022-07-27T23:58:41.914Z,75242.41
